Time;durP1;ratioP1;P1;durP2;ratioP2;P2;SDS_P1;SDS_P2;PMS_P1;PMS_P2;Temp;Humidity;BMP_temperature;BMP_pressure;BME280_temperature;BME280_humidity;BME280_pressure;Samples;Min_cycle;Max_cycle;Signal;HPM_P1;HPM_P2
2022/11/23 00:03:53;;;;;;;1.95;1.05;;;;;;;6.57;71.71;98675.69;10120134;29;20041;-77
2022/11/23 00:08:56;;;;;;;2.47;1.10;;;;;;;6.55;71.65;98677.66;10109425;29;20526;-78
2022/11/23 00:14:00;;;;;;;1.05;0.65;;;;;;;6.57;71.41;98674.84;10123166;29;20134;-78
2022/11/23 00:19:03;;;;;;;1.25;0.70;;;;;;;6.62;71.12;98680.63;10105412;29;20068;-78
2022/11/23 00:24:06;;;;;;;1.25;0.82;;;;;;;6.75;70.98;98683.84;10114685;29;20045;-78
2022/11/23 00:29:11;;;;;;;1.50;0.90;;;;;;;6.83;70.62;98683.16;10121361;29;20076;-78
2022/11/23 00:34:15;;;;;;;1.23;0.80;;;;;;;6.83;70.58;98677.81;10112106;29;20084;-78
2022/11/23 00:39:19;;;;;;;3.42;1.00;;;;;;;6.80;70.96;98680.72;10116410;29;20120;-78
2022/11/23 00:44:23;;;;;;;2.00;0.75;;;;;;;6.87;71.51;98675.69;10112201;29;20057;-78
2022/11/23 00:49:26;;;;;;;1.77;0.68;;;;;;;6.84;71.67;98680.31;10137905;29;20080;-77
2022/11/23 00:54:28;;;;;;;3.00;0.98;;;;;;;6.91;71.51;98682.44;10155159;29;20053;-78
2022/11/23 00:59:34;;;;;;;1.33;0.52;;;;;;;6.76;72.57;98690.03;10124798;29;20063;-78
2022/11/23 01:04:38;;;;;;;2.80;1.40;;;;;;;6.75;73.42;98683.00;10118104;29;20053;-78
2022/11/23 01:09:41;;;;;;;4.45;1.20;;;;;;;6.69;74.02;98688.88;10113691;29;20049;-78
2022/11/23 01:14:45;;;;;;;5.80;1.02;;;;;;;6.69;74.68;98686.22;10131551;29;20072;-78
2022/11/23 01:19:48;;;;;;;3.85;0.80;;;;;;;6.77;74.83;98695.19;10120978;29;20079;-78
2022/11/23 01:24:51;;;;;;;3.83;1.00;;;;;;;6.70;74.94;98690.59;10127574;29;20110;-78
2022/11/23 01:29:55;;;;;;;3.17;1.10;;;;;;;6.62;75.63;98685.94;10134648;29;20076;-78
2022/11/23 01:34:58;;;;;;;5.22;1.15;;;;;;;6.63;76.21;98687.63;10152175;29;20031;-78
2022/11/23 01:40:02;;;;;;;2.63;1.35;;;;;;;6.60;76.62;98690.56;10132204;29;20053;-78
2022/11/23 01:45:34;;;;;;;2.70;1.20;;;;;;;6.69;76.37;98694.22;10123529;29;20052;-78
2022/11/23 01:50:38;;;;;;;7.40;1.77;;;;;;;6.61;76.48;98678.94;10108791;29;20047;-78
2022/11/23 01:55:42;;;;;;;4.03;1.10;;;;;;;6.54;76.43;98689.31;10127714;29;20056;-78
2022/11/23 02:00:48;;;;;;;2.70;1.38;;;;;;;6.75;75.61;98699.84;10122023;29;20057;-77
2022/11/23 02:05:58;;;;;;;2.85;1.02;;;;;;;6.76;74.79;98696.19;10113032;29;20410;-78
2022/11/23 02:11:01;;;;;;;7.38;1.40;;;;;;;6.94;74.34;98693.69;10113048;29;20071;-77
2022/11/23 02:16:06;;;;;;;4.25;1.08;;;;;;;6.81;74.47;98707.28;10101662;29;20041;-77
2022/11/23 02:21:09;;;;;;;3.97;1.45;;;;;;;6.80;74.33;98697.63;10129407;29;20049;-78
2022/11/23 02:26:18;;;;;;;3.70;1.58;;;;;;;6.93;74.05;98704.50;10137672;29;20049;-77
2022/11/23 02:31:21;;;;;;;3.47;1.30;;;;;;;6.96;73.59;98702.38;10099358;29;20164;-77
2022/11/23 02:36:37;;;;;;;2.35;1.08;;;;;;;7.02;73.21;98706.31;10129449;29;20044;-77
2022/11/23 02:41:43;;;;;;;5.05;1.15;;;;;;;7.03;72.88;98710.69;10115142;29;20052;-79
2022/11/23 02:46:46;;;;;;;4.63;1.23;;;;;;;7.10;72.63;98700.25;10134901;29;20056;-79
2022/11/23 02:51:50;;;;;;;4.85;1.23;;;;;;;7.09;72.83;98710.09;10109493;29;20112;-80
2022/11/23 02:56:54;;;;;;;3.17;1.67;;;;;;;6.97;72.90;98727.28;10112473;29;20073;-78
2022/11/23 03:01:57;;;;;;;6.82;1.30;;;;;;;7.17;72.35;98720.06;10104405;29;20049;-79
2022/11/23 03:07:00;;;;;;;4.43;1.20;;;;;;;7.17;72.11;98712.06;10120865;29;20132;-79
2022/11/23 03:12:05;;;;;;;3.95;1.45;;;;;;;7.08;72.37;98713.78;10098090;29;20498;-78
2022/11/23 03:17:08;;;;;;;2.83;1.42;;;;;;;7.18;72.49;98719.91;10109546;29;20499;-79
2022/11/23 03:22:15;;;;;;;4.47;1.05;;;;;;;7.03;73.77;98718.69;10127600;29;20059;-79
2022/11/23 03:27:20;;;;;;;6.65;1.75;;;;;;;7.04;73.97;98720.38;10126230;29;20049;-79
2022/11/23 03:32:23;;;;;;;4.68;1.23;;;;;;;7.03;73.89;98730.22;10106164;29;20084;-79
2022/11/23 03:37:28;;;;;;;4.00;1.05;;;;;;;7.07;73.36;98725.41;10096635;29;20431;-79
2022/11/23 03:42:33;;;;;;;6.90;1.25;;;;;;;7.11;73.34;98732.16;10111306;29;20077;-80
2022/11/23 03:47:36;;;;;;;2.63;0.93;;;;;;;7.18;73.05;98727.94;10127616;29;20080;-78
2022/11/23 03:52:39;;;;;;;1.42;0.95;;;;;;;6.93;74.92;98740.03;10116101;29;20583;-80
2022/11/23 03:57:43;;;;;;;4.88;1.00;;;;;;;6.59;78.96;98747.59;10120217;29;20527;-78
2022/11/23 04:02:46;;;;;;;2.28;1.10;;;;;;;6.65;79.82;98735.53;10167705;29;20048;-79
2022/11/23 04:08:27;;;;;;;2.65;1.20;;;;;;;6.67;80.36;98733.56;10090946;29;20058;-78
2022/11/23 04:13:33;;;;;;;7.72;2.10;;;;;;;6.64;80.88;98748.03;10116197;29;20071;-77
2022/11/23 04:18:36;;;;;;;6.47;1.20;;;;;;;6.57;81.83;98738.88;10130261;29;20048;-77
2022/11/23 04:23:39;;;;;;;8.82;1.60;;;;;;;6.46;81.85;98742.50;10138570;29;20096;-78
2022/11/23 04:28:46;;;;;;;4.18;1.10;;;;;;;6.52;81.51;98741.94;10139092;29;20052;-78
2022/11/23 04:33:49;;;;;;;3.45;1.10;;;;;;;6.57;81.71;98737.06;10138551;29;20045;-77
2022/11/23 04:38:55;;;;;;;4.32;1.42;;;;;;;6.59;81.46;98742.25;10113960;29;20053;-77
2022/11/23 04:44:09;;;;;;;4.10;1.40;;;;;;;6.59;81.42;98744.94;10115151;29;20052;-80
2022/11/23 04:49:14;;;;;;;2.83;1.35;;;;;;;6.60;81.81;98738.59;10136743;29;20056;-77
2022/11/23 04:54:18;;;;;;;6.32;2.25;;;;;;;6.56;81.37;98747.88;10136545;29;20507;-78
2022/11/23 04:59:28;;;;;;;6.13;2.35;;;;;;;6.47;81.13;98748.69;10116948;29;20049;-77
2022/11/23 05:04:34;;;;;;;3.20;2.60;;;;;;;6.35;80.91;98747.97;10097515;29;20049;-78
2022/11/23 05:09:38;;;;;;;4.03;1.85;;;;;;;6.25;81.13;98747.09;10117367;29;20471;-82
2022/11/23 05:14:49;;;;;;;5.28;1.55;;;;;;;6.34;80.74;98756.97;10136105;29;20779;-80
2022/11/23 05:20:04;;;;;;;4.70;1.20;;;;;;;6.26;80.63;98754.13;10131585;29;20155;-77
2022/11/23 05:25:10;;;;;;;5.25;1.20;;;;;;;6.25;80.51;98753.25;10127988;29;20051;-78
2022/11/23 05:30:15;;;;;;;4.97;1.58;;;;;;;6.25;79.84;98755.94;10135237;29;20048;-77
2022/11/23 05:35:19;;;;;;;3.97;1.65;;;;;;;6.32;79.74;98764.25;10135604;29;20049;-79
2022/11/23 05:40:22;;;;;;;4.18;1.52;;;;;;;6.32;79.58;98757.09;10127337;29;20052;-78
2022/11/23 05:45:31;;;;;;;8.98;1.83;;;;;;;6.40;79.31;98764.41;10134942;29;20048;-77
2022/11/23 05:50:34;;;;;;;5.57;1.50;;;;;;;6.34;78.93;98771.13;10134689;29;20082;-77
2022/11/23 05:55:59;;;;;;;4.32;1.08;;;;;;;6.58;78.28;98773.44;10136161;29;20048;-77
2022/11/23 06:01:04;;;;;;;3.40;1.23;;;;;;;6.68;77.49;98777.94;10134847;29;20446;-79
2022/11/23 06:06:11;;;;;;;5.25;1.33;;;;;;;6.78;76.73;98778.78;10135094;29;20049;-77
2022/11/23 06:11:17;;;;;;;5.20;1.35;;;;;;;6.89;76.16;98780.53;10134505;29;20048;-76
2022/11/23 06:16:22;;;;;;;4.68;1.17;;;;;;;6.87;76.17;98785.13;10134159;29;20044;-76
2022/11/23 06:21:36;;;;;;;5.40;1.35;;;;;;;6.58;78.12;98791.25;10133312;29;20053;-79
2022/11/23 06:26:40;;;;;;;5.35;2.08;;;;;;;6.56;78.88;98790.56;10095341;29;20045;-79
2022/11/23 06:31:44;;;;;;;3.15;1.10;;;;;;;6.43;80.06;98800.63;10096020;29;20049;-77
2022/11/23 06:36:48;;;;;;;5.30;2.28;;;;;;;6.44;80.92;98799.63;10132780;29;20529;-78
2022/11/23 06:41:51;;;;;;;4.72;1.50;;;;;;;6.41;81.69;98803.41;10132446;29;20059;-78
2022/11/23 06:46:55;;;;;;;9.10;1.63;;;;;;;6.47;81.77;98804.69;10128396;29;20067;-77
2022/11/23 06:51:58;;;;;;;1.75;1.20;;;;;;;6.48;82.04;98807.25;10132581;29;20088;-80
2022/11/23 06:57:01;;;;;;;5.97;2.53;;;;;;;6.45;82.24;98804.00;10127667;29;20049;-78
2022/11/23 07:02:06;;;;;;;4.63;1.63;;;;;;;6.49;82.24;98805.41;10101505;29;20537;-76
2022/11/23 07:07:12;;;;;;;4.78;1.65;;;;;;;6.45;82.23;98804.00;10132375;29;20045;-77
2022/11/23 07:12:22;;;;;;;6.22;1.73;;;;;;;6.50;81.67;98809.75;10132804;29;20415;-77
2022/11/23 07:17:26;;;;;;;4.82;2.05;;;;;;;6.59;81.35;98812.47;10134058;29;20045;-78
2022/11/23 07:22:29;;;;;;;7.28;2.25;;;;;;;6.58;80.61;98809.91;10133735;29;20475;-78
2022/11/23 07:27:32;;;;;;;5.70;3.60;;;;;;;6.69;80.24;98820.50;10132915;29;20052;-77
2022/11/23 07:32:38;;;;;;;4.78;2.53;;;;;;;6.78;79.77;98817.00;10131942;29;20057;-77
2022/11/23 07:37:41;;;;;;;7.18;2.90;;;;;;;6.77;79.44;98819.78;10109441;29;20048;-77
2022/11/23 07:42:44;;;;;;;5.25;2.35;;;;;;;6.77;78.81;98823.28;10099739;29;20405;-78
2022/11/23 07:47:57;;;;;;;4.10;2.30;;;;;;;6.91;78.54;98826.56;10101928;29;20423;-77
2022/11/23 07:53:01;;;;;;;3.53;2.30;;;;;;;6.94;78.08;98832.50;10140931;29;20549;-77
2022/11/23 07:58:05;;;;;;;2.53;1.95;;;;;;;6.94;77.29;98836.97;10140277;29;20048;-78
2022/11/23 08:03:13;;;;;;;6.18;2.33;;;;;;;7.00;77.03;98837.28;10116551;29;20143;-76
2022/11/23 08:08:34;;;;;;;5.40;2.38;;;;;;;7.14;76.22;98846.69;10119649;29;20053;-76
2022/11/23 08:13:37;;;;;;;3.72;2.17;;;;;;;7.09;75.55;98848.09;10125913;29;20140;-79
2022/11/23 08:18:41;;;;;;;12.00;2.83;;;;;;;7.32;75.17;98846.81;10137134;29;20068;-77
2022/11/23 08:23:44;;;;;;;4.07;1.50;;;;;;;7.26;74.67;98856.25;10134949;29;20100;-77
2022/11/23 08:28:47;;;;;;;5.05;1.70;;;;;;;7.42;74.29;98855.69;10139555;29;20073;-80
2022/11/23 08:33:51;;;;;;;4.03;1.63;;;;;;;7.50;73.90;98861.16;10127147;29;20052;-78
2022/11/23 08:38:54;;;;;;;5.03;1.50;;;;;;;7.66;73.06;98857.94;10123332;29;20052;-78
2022/11/23 08:43:56;;;;;;;5.88;1.75;;;;;;;7.69;72.65;98860.31;10138604;29;20136;-78
2022/11/23 08:49:01;;;;;;;4.85;1.50;;;;;;;7.80;72.22;98866.50;10138368;29;20045;-81
2022/11/23 08:54:03;;;;;;;6.97;1.70;;;;;;;7.91;71.37;98866.31;10138927;29;20129;-79
2022/11/23 08:59:06;;;;;;;5.22;1.95;;;;;;;7.94;71.48;98868.72;10124146;29;20495;-77
2022/11/23 09:04:10;;;;;;;10.15;3.67;;;;;;;7.97;70.94;98872.91;10112058;29;20499;-77
2022/11/23 09:09:21;;;;;;;5.93;2.38;;;;;;;7.83;71.34;98888.41;10099106;29;20069;-78
2022/11/23 09:14:26;;;;;;;6.38;2.42;;;;;;;7.52;72.63;98882.41;10099093;29;20137;-82
2022/11/23 09:19:30;;;;;;;7.25;2.80;;;;;;;7.60;72.93;98879.88;10105645;29;20072;-77
2022/11/23 09:24:33;;;;;;;10.10;3.20;;;;;;;7.63;72.41;98884.94;10099092;29;20474;-78
2022/11/23 09:29:36;;;;;;;3.55;2.03;;;;;;;7.98;71.71;98879.94;10098376;29;20082;-78
2022/11/23 09:34:47;;;;;;;6.75;2.08;;;;;;;8.16;71.16;98887.06;10099522;29;20048;-81
2022/11/23 09:39:49;;;;;;;5.95;2.03;;;;;;;8.21;70.53;98894.69;10123997;29;20132;-78
2022/11/23 09:45:07;;;;;;;6.20;2.13;;;;;;;8.21;70.15;98893.84;10099514;29;20072;-77
2022/11/23 09:50:17;;;;;;;4.15;1.60;;;;;;;8.17;70.37;98902.16;10098627;29;20096;-78
2022/11/23 09:55:32;;;;;;;2.47;1.65;;;;;;;8.24;70.58;98891.72;10100350;29;20551;-77
2022/11/23 10:00:38;;;;;;;5.15;1.95;;;;;;;8.47;69.60;98894.88;10120646;29;20526;-80
2022/11/23 10:05:47;;;;;;;3.15;1.13;;;;;;;8.30;68.64;98900.97;10136381;29;20570;-81
2022/11/23 10:10:59;;;;;;;9.07;3.22;;;;;;;8.72;68.04;98897.88;10149236;23;20127;-80
2022/11/23 10:16:22;;;;;;;3.67;1.83;;;;;;;9.02;66.76;98908.28;10150804;29;20048;-79
2022/11/23 10:21:38;;;;;;;4.45;1.63;;;;;;;9.01;66.14;98900.41;10136390;29;20049;-80
2022/11/23 10:26:44;;;;;;;2.47;1.00;;;;;;;9.42;65.61;98898.97;10135691;29;20044;-79
2022/11/23 10:31:49;;;;;;;5.55;0.88;;;;;;;9.32;64.30;98889.31;10131586;29;20124;-79
2022/11/23 10:36:59;;;;;;;4.93;1.40;;;;;;;9.83;64.73;98882.41;10120606;29;20048;-80
2022/11/23 10:42:14;;;;;;;6.32;1.40;;;;;;;10.02;63.42;98886.78;10117814;29;20127;-80
2022/11/23 10:47:37;;;;;;;5.35;1.73;;;;;;;9.99;62.42;98879.88;10101041;29;20049;-78
2022/11/23 10:52:50;;;;;;;6.22;1.85;;;;;;;10.09;62.41;98866.34;10130968;29;20092;-77
2022/11/23 10:57:53;;;;;;;;;;;;;;;9.86;62.20;98861.50;10124681;29;20077;-78
2022/11/23 11:02:58;;;;;;;5.28;0.95;;;;;;;9.72;61.67;98852.16;10114295;29;19978;-78
2022/11/23 11:08:12;;;;;;;4.72;1.35;;;;;;;10.45;60.14;98855.47;10130338;29;20075;-78
2022/11/23 11:13:28;;;;;;;5.32;0.98;;;;;;;11.57;54.27;98840.81;10124528;29;20495;-78
2022/11/23 11:18:33;;;;;;;10.50;2.03;;;;;;;11.15;54.38;98845.31;10129488;29;20490;-78
2022/11/23 11:23:41;;;;;;;3.97;1.10;;;;;;;13.65;48.60;98843.19;10138512;29;20072;-78
2022/11/23 11:28:48;;;;;;;6.18;1.35;;;;;;;13.37;47.16;98846.44;10137304;29;20104;-78
2022/11/23 11:33:58;;;;;;;5.00;0.98;;;;;;;12.97;46.85;98845.69;10120450;29;20083;-78
2022/11/23 11:39:10;;;;;;;7.40;1.42;;;;;;;13.93;46.05;98833.50;10114969;29;20068;-78
2022/11/23 11:44:24;;;;;;;5.55;0.95;;;;;;;13.56;45.95;98847.00;10122202;29;20064;-78
2022/11/23 11:49:31;;;;;;;2.95;0.68;;;;;;;13.17;46.39;98843.34;10125551;29;20465;-78
2022/11/23 11:54:43;;;;;;;5.22;0.95;;;;;;;12.31;48.81;98838.88;10126286;29;20040;-78
2022/11/23 11:59:48;;;;;;;5.15;0.95;;;;;;;14.35;44.33;98840.13;10133353;29;20061;-78
2022/11/23 12:05:03;;;;;;;7.43;1.40;;;;;;;13.77;44.58;98833.66;10124507;29;20454;-78
2022/11/23 12:10:15;;;;;;;5.13;1.10;;;;;;;13.26;44.57;98847.66;10134125;29;20036;-79
2022/11/23 12:15:20;;;;;;;11.77;1.03;;;;;;;12.11;45.92;98825.78;10132907;29;20098;-78
2022/11/23 12:20:50;;;;;;;11.15;1.42;;;;;;;11.17;49.29;98832.56;10125446;29;20048;-78
2022/11/23 12:26:08;;;;;;;5.13;1.13;;;;;;;12.16;47.53;98827.97;10132448;29;20096;-81
2022/11/23 12:31:20;;;;;;;9.93;1.48;;;;;;;11.91;48.39;98819.09;10107426;29;20049;-79
2022/11/23 12:36:41;;;;;;;;;;;;;;;13.02;46.56;98805.53;10121638;29;20061;-79
2022/11/23 12:41:53;;;;;;;6.55;1.30;;;;;;;13.13;46.15;98812.38;10133051;29;19971;-79
2022/11/23 12:47:08;;;;;;;3.35;0.90;;;;;;;12.13;47.24;98813.00;10137212;29;20056;-79
2022/11/23 12:52:30;;;;;;;4.80;1.40;;;;;;;11.74;48.95;98799.47;10127109;29;20041;-79
2022/11/23 12:57:40;;;;;;;7.47;1.60;;;;;;;12.28;48.30;98786.22;10123464;29;20037;-79
2022/11/23 13:03:18;;;;;;;5.00;1.55;;;;;;;12.26;47.57;98792.75;10121516;29;20045;-79
2022/11/23 13:08:38;;;;;;;5.18;1.05;;;;;;;12.16;46.91;98793.81;10119352;29;20057;-79
2022/11/23 13:13:58;;;;;;;9.10;1.92;;;;;;;12.13;47.16;98785.25;10118830;29;20422;-78
2022/11/23 13:19:16;;;;;;;2.55;1.15;;;;;;;12.09;47.63;98778.50;10128266;29;20041;-79
2022/11/23 13:24:25;;;;;;;10.18;1.50;;;;;;;13.44;45.66;98774.59;10134018;29;20041;-79
2022/11/23 13:29:57;;;;;;;7.50;2.08;;;;;;;13.46;46.35;98769.84;10130321;29;20045;-79
2022/11/23 13:35:00;;;;;;;6.20;2.00;;;;;;;13.01;48.85;98770.69;10116524;29;20079;-79
2022/11/23 13:40:04;;;;;;;8.55;3.08;;;;;;;13.16;49.06;98782.34;10124340;29;20573;-79
2022/11/23 13:45:29;;;;;;;10.65;2.95;;;;;;;12.61;50.42;98783.38;10104614;29;20048;-79
2022/11/23 13:50:32;;;;;;;12.95;3.63;;;;;;;12.38;50.48;98796.78;10117540;29;20047;-79
2022/11/23 13:55:37;;;;;;;10.52;2.40;;;;;;;12.56;50.33;98792.00;10115619;29;20056;-79
2022/11/23 14:00:50;;;;;;;10.80;2.30;;;;;;;12.48;50.20;98808.22;10136426;29;20084;-79
2022/11/23 14:05:59;;;;;;;6.88;2.17;;;;;;;11.92;51.75;98799.25;10126566;29;20049;-78
2022/11/23 14:11:12;;;;;;;6.28;1.85;;;;;;;12.20;50.84;98799.69;10132741;29;20068;-79
2022/11/23 14:16:38;;;;;;;5.95;1.48;;;;;;;11.26;52.14;98799.31;10133030;29;20255;-79
2022/11/23 14:21:55;;;;;;;11.30;3.85;;;;;;;10.56;54.36;98799.66;10130648;29;20125;-78
2022/11/23 14:27:11;;;;;;;10.18;2.38;;;;;;;10.31;55.09;98800.56;10125764;29;20072;-79
2022/11/23 14:32:52;;;;;;;11.40;2.60;;;;;;;10.41;55.06;98811.16;10125409;29;20049;-79
2022/11/23 14:38:20;;;;;;;7.13;2.20;;;;;;;10.84;53.44;98805.59;10121618;29;20045;-77
2022/11/23 14:43:25;;;;;;;9.50;2.20;;;;;;;10.49;53.79;98795.94;10126396;29;20041;-78
2022/11/23 14:48:30;;;;;;;10.50;2.70;;;;;;;10.00;55.00;98786.81;10126620;29;20049;-78
2022/11/23 14:53:38;;;;;;;12.82;3.20;;;;;;;9.94;55.10;98786.47;10113571;29;20119;-79
2022/11/23 14:58:49;;;;;;;11.23;2.33;;;;;;;9.48;55.88;98782.28;10107447;29;20045;-77
2022/11/23 15:03:58;;;;;;;8.88;2.03;;;;;;;9.02;57.34;98777.06;10103893;29;20076;-77
2022/11/23 15:09:09;;;;;;;10.15;2.70;;;;;;;8.74;58.02;98786.13;10123251;29;20052;-78
2022/11/23 15:14:19;;;;;;;8.68;2.10;;;;;;;8.65;58.28;98784.38;10116666;29;20414;-77
2022/11/23 15:19:28;;;;;;;7.28;2.13;;;;;;;8.24;59.58;98774.00;10105946;29;20045;-77
2022/11/23 15:24:31;;;;;;;10.00;2.50;;;;;;;8.21;59.83;98778.81;10104776;29;20053;-76
2022/11/23 15:29:36;;;;;;;19.65;6.32;;;;;;;8.13;60.38;98777.72;10115392;29;20040;-77
2022/11/23 15:34:41;;;;;;;13.15;5.78;;;;;;;8.04;60.28;98783.13;10123484;29;20045;-77
2022/11/23 15:39:44;;;;;;;17.95;4.03;;;;;;;7.91;61.01;98794.97;10121277;29;20044;-77
2022/11/23 15:44:47;;;;;;;9.70;3.20;;;;;;;7.85;61.26;98792.06;10115471;29;20059;-76
2022/11/23 15:49:59;;;;;;;13.43;4.50;;;;;;;7.70;62.09;98799.69;10120041;29;20053;-76
2022/11/23 15:55:05;;;;;;;13.23;4.10;;;;;;;7.67;62.36;98808.00;10093420;29;20053;-77
2022/11/23 16:00:22;;;;;;;6.57;2.60;;;;;;;7.48;63.03;98817.72;10094405;29;20139;-75
2022/11/23 16:05:27;;;;;;;9.82;3.28;;;;;;;7.36;63.53;98826.88;10084754;29;20056;-77
2022/11/23 16:10:32;;;;;;;11.85;4.28;;;;;;;7.39;63.63;98823.09;10089073;29;20082;-75
2022/11/23 16:15:40;;;;;;;10.40;6.90;;;;;;;7.27;63.64;98828.56;10092396;29;20135;-77
2022/11/23 16:20:46;;;;;;;14.88;5.90;;;;;;;7.23;63.71;98837.84;10092860;29;20171;-76
2022/11/23 16:25:55;;;;;;;10.07;5.45;;;;;;;7.19;63.71;98836.44;10092638;29;20068;-76
2022/11/23 16:30:58;;;;;;;5.63;3.38;;;;;;;7.06;63.99;98851.91;10088458;29;20045;-76
2022/11/23 16:36:02;;;;;;;12.25;4.00;;;;;;;6.96;64.08;98862.53;10088837;29;20688;-77
2022/11/23 16:41:05;;;;;;;10.18;2.90;;;;;;;6.90;63.89;98862.28;10071047;29;20151;-76
2022/11/23 16:46:09;;;;;;;6.68;2.38;;;;;;;6.81;64.00;98878.09;10081808;29;20052;-77
2022/11/23 16:51:13;;;;;;;9.45;3.28;;;;;;;6.78;64.23;98877.53;10069632;29;20063;-77
2022/11/23 16:56:19;;;;;;;9.13;2.78;;;;;;;6.76;64.05;98879.47;10089335;29;20083;-77
2022/11/23 17:01:24;;;;;;;7.75;3.53;;;;;;;6.68;64.23;98879.31;10084783;29;20068;-77
2022/11/23 17:06:29;;;;;;;9.05;3.53;;;;;;;6.67;64.33;98886.50;10079016;29;20695;-77
2022/11/23 17:11:31;;;;;;;12.95;3.67;;;;;;;6.57;64.56;98894.44;10076616;29;20164;-78
2022/11/23 17:16:34;;;;;;;10.95;4.05;;;;;;;6.50;64.62;98893.31;10089707;29;20048;-77
2022/11/23 17:21:38;;;;;;;8.43;2.97;;;;;;;6.50;64.79;98897.78;10089416;29;20385;-77
2022/11/23 17:26:45;;;;;;;9.18;3.38;;;;;;;6.54;64.65;98900.06;10085374;29;20059;-77
2022/11/23 17:31:49;;;;;;;12.82;4.25;;;;;;;6.70;64.20;98899.56;10082010;29;20052;-77
2022/11/23 17:36:54;;;;;;;7.53;3.75;;;;;;;6.75;63.73;98913.34;10087781;29;20052;-77
2022/11/23 17:41:57;;;;;;;10.00;4.82;;;;;;;6.76;63.73;98912.34;10081245;29;20056;-77
2022/11/23 17:47:14;;;;;;;10.05;4.18;;;;;;;6.81;63.80;98920.78;10091155;29;20525;-78
2022/11/23 17:52:18;;;;;;;7.43;2.75;;;;;;;6.88;63.74;98920.28;10100115;29;20113;-79
2022/11/23 17:57:23;;;;;;;10.32;4.28;;;;;;;6.93;63.76;98937.56;10091597;29;20105;-78
2022/11/23 18:02:26;;;;;;;7.47;2.35;;;;;;;7.03;63.36;98942.94;10076714;29;20765;-78
2022/11/23 18:07:31;;;;;;;9.52;2.72;;;;;;;7.02;63.33;98946.59;10066871;29;20057;-79
2022/11/23 18:12:34;;;;;;;15.73;4.30;;;;;;;7.06;63.41;98954.19;10084138;29;20053;-75
2022/11/23 18:17:36;;;;;;;13.18;3.10;;;;;;;7.09;63.41;98963.75;10072695;29;20080;-76
2022/11/23 18:22:41;;;;;;;9.65;2.80;;;;;;;7.18;63.32;98976.28;10067779;29;20081;-76
2022/11/23 18:27:43;;;;;;;12.00;5.22;;;;;;;7.15;64.47;98987.22;10090967;29;20510;-78
2022/11/23 18:32:46;;;;;;;19.90;7.00;;;;;;;7.16;65.51;98974.72;10078645;29;20058;-77
2022/11/23 18:37:50;;;;;;;14.02;5.35;;;;;;;7.03;66.81;98975.81;10081326;29;20052;-75
2022/11/23 18:42:53;;;;;;;14.18;3.95;;;;;;;6.99;68.05;98977.09;10080305;29;20045;-76
2022/11/23 18:47:56;;;;;;;14.32;4.97;;;;;;;6.93;68.58;98987.44;10080651;29;20061;-76
2022/11/23 18:53:00;;;;;;;7.55;2.30;;;;;;;6.87;67.45;98979.97;10073498;29;20049;-77
2022/11/23 18:58:03;;;;;;;15.02;2.42;;;;;;;6.99;66.78;98989.56;10069695;29;20060;-76
2022/11/23 19:03:06;;;;;;;12.05;2.22;;;;;;;7.08;66.28;98986.09;10072976;29;20061;-77
2022/11/23 19:08:10;;;;;;;6.22;2.33;;;;;;;7.11;66.27;98988.50;10071850;29;20062;-77
2022/11/23 19:13:13;;;;;;;5.65;2.35;;;;;;;6.93;66.82;98996.28;10079184;29;20065;-76
2022/11/23 19:18:16;;;;;;;8.32;2.30;;;;;;;6.89;67.43;99004.72;10078704;29;20048;-75
2022/11/23 19:23:20;;;;;;;6.68;1.73;;;;;;;6.85;68.61;99007.59;10085089;29;20737;-76
2022/11/23 19:28:27;;;;;;;8.30;2.50;;;;;;;6.61;70.65;99021.28;10089447;29;20049;-76
2022/11/23 19:33:29;;;;;;;8.95;2.10;;;;;;;6.53;72.31;99028.25;10085509;29;20063;-76
2022/11/23 19:38:35;;;;;;;5.43;1.90;;;;;;;6.28;74.13;99045.47;10085990;29;21204;-76
2022/11/23 19:43:38;;;;;;;8.82;2.20;;;;;;;6.14;75.45;99034.19;10061149;29;20057;-76
2022/11/23 19:48:41;;;;;;;4.22;1.88;;;;;;;6.02;77.01;99035.19;10088322;29;21171;-77
2022/11/23 19:53:47;;;;;;;9.73;2.00;;;;;;;5.97;78.59;99042.72;10082614;29;20064;-76
2022/11/23 19:58:51;;;;;;;7.32;2.10;;;;;;;5.93;80.25;99047.47;10071160;29;20499;-75
2022/11/23 20:03:56;;;;;;;6.38;2.72;;;;;;;5.73;81.06;99057.13;10071010;29;20065;-76
2022/11/23 20:09:02;;;;;;;8.45;2.90;;;;;;;5.68;82.01;99067.31;10074370;29;20105;-76
2022/11/23 20:14:06;;;;;;;9.07;2.78;;;;;;;5.41;82.28;99086.34;10087112;29;20087;-76
2022/11/23 20:19:09;;;;;;;9.13;2.45;;;;;;;5.69;82.58;99084.13;10076436;29;20522;-76
2022/11/23 20:24:14;;;;;;;6.03;2.35;;;;;;;5.68;82.13;99085.09;10073419;29;20544;-76
2022/11/23 20:29:17;;;;;;;15.65;4.10;;;;;;;5.55;82.68;99095.91;10079253;29;20441;-77
2022/11/23 20:34:20;;;;;;;10.25;2.80;;;;;;;5.78;82.42;99095.84;10070959;29;21303;-76
2022/11/23 20:39:29;;;;;;;7.47;2.08;;;;;;;5.68;82.40;99098.44;10088473;29;21247;-77
2022/11/23 20:44:32;;;;;;;11.48;2.00;;;;;;;5.67;82.00;99102.88;10073879;29;20428;-77
2022/11/23 20:49:36;;;;;;;9.10;2.30;;;;;;;5.68;81.79;99103.75;10093610;29;20056;-76
2022/11/23 20:54:40;;;;;;;6.22;2.28;;;;;;;5.69;81.62;99110.78;10092605;29;21332;-76
2022/11/23 20:59:43;;;;;;;5.13;1.80;;;;;;;5.63;80.79;99120.09;10093732;29;20526;-76
2022/11/23 21:04:46;;;;;;;10.77;2.00;;;;;;;5.82;80.53;99132.78;10094158;29;20536;-75
2022/11/23 21:09:50;;;;;;;9.48;1.85;;;;;;;5.77;80.21;99137.63;10076295;29;20081;-75
2022/11/23 21:14:53;;;;;;;5.85;1.73;;;;;;;5.94;80.17;99139.78;10139749;23;20414;-80
2022/11/23 21:19:56;;;;;;;7.63;1.90;;;;;;;5.99;79.84;99131.41;10128170;29;20072;-79
2022/11/23 21:25:00;;;;;;;3.40;1.85;;;;;;;5.83;79.87;99145.13;10128330;29;20052;-79
2022/11/23 21:30:04;;;;;;;5.45;2.40;;;;;;;5.86;79.90;99144.03;10105184;29;20057;-77
2022/11/23 21:35:07;;;;;;;4.32;1.80;;;;;;;5.90;79.92;99156.16;10122305;29;20065;-78
2022/11/23 21:40:12;;;;;;;4.07;2.25;;;;;;;5.99;79.55;99149.22;10122411;29;20093;-78
2022/11/23 21:45:15;;;;;;;4.38;2.20;;;;;;;5.86;80.05;99158.19;10123690;29;20071;-77
2022/11/23 21:50:18;;;;;;;6.63;2.00;;;;;;;5.88;79.76;99158.94;10122853;29;20072;-78
2022/11/23 21:55:22;;;;;;;4.50;2.20;;;;;;;6.08;79.29;99161.78;10123201;29;20057;-78
2022/11/23 22:00:25;;;;;;;3.45;2.17;;;;;;;6.08;78.80;99167.13;10121936;29;20072;-79
2022/11/23 22:05:33;;;;;;;9.30;2.15;;;;;;;6.17;78.17;99171.69;10103323;29;20049;-79
2022/11/23 22:10:37;;;;;;;4.60;2.05;;;;;;;6.18;78.09;99176.91;10122273;29;20045;-79
2022/11/23 22:15:40;;;;;;;3.45;1.77;;;;;;;6.18;77.33;99181.41;10101644;29;20064;-78
2022/11/23 22:20:43;;;;;;;5.78;2.03;;;;;;;6.26;76.86;99184.28;10101692;29;20041;-78
2022/11/23 22:25:47;;;;;;;6.72;1.88;;;;;;;6.30;77.67;99183.06;10099064;29;20109;-77
2022/11/23 22:30:52;;;;;;;5.03;1.90;;;;;;;6.18;77.52;99182.25;10095476;29;20052;-77
2022/11/23 22:35:59;;;;;;;4.53;1.77;;;;;;;6.15;77.20;99203.00;10095572;29;20047;-78
2022/11/23 22:41:05;;;;;;;3.90;1.67;;;;;;;6.32;77.19;99206.94;10095465;29;20515;-77
2022/11/23 22:46:11;;;;;;;3.90;1.77;;;;;;;6.39;77.24;99203.66;10103520;29;20120;-77
2022/11/23 22:51:16;;;;;;;3.28;1.73;;;;;;;6.22;77.36;99198.84;10126038;29;20044;-78
2022/11/23 22:56:21;;;;;;;3.40;1.77;;;;;;;6.02;77.39;99216.47;10116107;29;20044;-78
2022/11/23 23:01:26;;;;;;;4.40;1.88;;;;;;;6.23;76.75;99235.22;10098805;29;20136;-77
2022/11/23 23:06:32;;;;;;;4.80;1.92;;;;;;;6.32;76.83;99217.59;10128132;29;20454;-77
2022/11/23 23:11:37;;;;;;;4.78;1.88;;;;;;;6.29;76.75;99217.88;10129952;29;20076;-78
2022/11/23 23:16:40;;;;;;;4.85;2.85;;;;;;;6.28;77.02;99226.81;10134281;29;20149;-78
2022/11/23 23:21:43;;;;;;;8.40;2.60;;;;;;;6.13;77.81;99228.91;10121118;29;20136;-78
2022/11/23 23:26:47;;;;;;;6.03;2.20;;;;;;;6.29;77.83;99234.72;10094767;29;20044;-78
2022/11/23 23:31:50;;;;;;;4.65;2.15;;;;;;;6.23;77.80;99243.22;10094825;29;20096;-78
2022/11/23 23:36:54;;;;;;;5.93;1.77;;;;;;;6.36;77.26;99245.72;10095956;29;20407;-78
2022/11/23 23:41:58;;;;;;;5.90;2.28;;;;;;;6.31;77.33;99248.78;10131555;29;20076;-78
2022/11/23 23:47:01;;;;;;;3.80;2.17;;;;;;;6.47;77.23;99255.50;10115223;29;20055;-78
2022/11/23 23:52:04;;;;;;;8.48;2.38;;;;;;;6.54;76.95;99254.88;10111727;29;20072;-78
2022/11/23 23:57:09;;;;;;;5.75;1.98;;;;;;;6.44;77.13;99261.09;10108996;29;20056;-78
